createdAt,value
2018-06-12T00:00:12.349Z,15.97
2018-06-12T00:02:41.213Z,15.87
2018-06-12T00:05:10.057Z,15.50
2018-06-12T00:07:38.921Z,16.23
2018-06-12T00:10:07.807Z,15.53
2018-06-12T00:12:36.648Z,16.27
2018-06-12T00:15:05.544Z,16.23
2018-06-12T00:17:34.413Z,18.27
2018-06-12T00:20:03.251Z,18.48
2018-06-12T00:22:32.142Z,15.00
2018-06-12T00:25:00.991Z,16.00
2018-06-12T00:27:29.874Z,16.10
2018-06-12T00:29:58.725Z,15.60
2018-06-12T00:32:27.586Z,15.60
2018-06-12T00:34:56.494Z,15.17
2018-06-12T00:37:25.354Z,16.77
2018-06-12T00:39:54.268Z,14.53
2018-06-12T00:42:23.120Z,17.42
2018-06-12T00:44:52.000Z,16.07
2018-06-12T00:47:20.889Z,15.67
2018-06-12T00:49:49.776Z,16.93
2018-06-12T00:52:18.602Z,14.90
2018-06-12T00:54:47.490Z,15.23
2018-06-12T00:57:16.364Z,18.00
2018-06-12T00:59:45.233Z,18.50
2018-06-12T01:02:14.080Z,18.53
2018-06-12T01:04:42.948Z,15.80
2018-06-12T01:07:11.810Z,14.70
2018-06-12T01:09:40.665Z,16.73
2018-06-12T01:12:09.537Z,15.77
2018-06-12T01:14:38.400Z,16.97
2018-06-12T01:17:07.278Z,15.33
2018-06-12T01:19:36.113Z,16.20
2018-06-12T01:22:04.994Z,17.03
2018-06-12T01:24:33.881Z,16.20
2018-06-12T01:27:02.722Z,18.00
2018-06-12T01:29:31.608Z,19.37
2018-06-12T01:32:00.452Z,16.30
2018-06-12T01:34:29.343Z,16.87
2018-06-12T01:36:58.243Z,17.40
2018-06-12T01:39:27.078Z,19.77
2018-06-12T01:41:55.949Z,17.10
2018-06-12T01:44:24.783Z,17.13
2018-06-12T01:46:53.636Z,16.43
2018-06-12T01:49:22.497Z,18.63
2018-06-12T01:51:51.369Z,16.87
2018-06-12T01:54:20.200Z,17.37
2018-06-12T01:56:49.046Z,20.95
2018-06-12T01:59:17.907Z,18.37
2018-06-12T02:01:46.769Z,19.87
2018-06-12T02:04:15.636Z,17.83
2018-06-12T02:06:44.509Z,18.57
2018-06-12T02:09:13.376Z,20.08
2018-06-12T02:11:42.211Z,18.10
2018-06-12T02:14:11.090Z,17.33
2018-06-12T02:16:39.945Z,19.27
2018-06-12T02:19:08.792Z,18.33
2018-06-12T02:21:37.645Z,18.70
2018-06-12T02:24:06.644Z,18.17
2018-06-12T02:26:35.497Z,19.00
2018-06-12T02:29:04.360Z,17.93
2018-06-12T02:31:33.251Z,18.20
2018-06-12T02:34:02.452Z,19.53
2018-06-12T02:36:31.326Z,19.43
2018-06-12T02:39:00.167Z,19.20
2018-06-12T02:41:29.078Z,18.70
2018-06-12T02:43:57.949Z,18.37
2018-06-12T02:46:26.810Z,18.60
2018-06-12T02:48:55.691Z,20.20
2018-06-12T02:51:24.583Z,19.70
2018-06-12T02:53:53.442Z,18.53
2018-06-12T02:56:22.435Z,18.40
2018-06-12T02:58:51.164Z,18.07
2018-06-12T03:01:20.069Z,19.47
2018-06-12T03:03:48.943Z,18.80
2018-06-12T03:06:17.811Z,19.07
2018-06-12T03:08:46.709Z,19.20
2018-06-12T03:11:15.599Z,18.10
2018-06-12T03:13:44.473Z,16.63
2018-06-12T03:16:13.357Z,18.07
2018-06-12T03:18:42.270Z,17.13
2018-06-12T03:21:11.151Z,19.17
2018-06-12T03:23:40.060Z,14.97
2018-06-12T03:26:08.945Z,17.50
2018-06-12T03:28:37.835Z,14.87
2018-06-12T03:31:06.719Z,16.97
2018-06-12T03:33:35.596Z,15.77
2018-06-12T03:36:04.490Z,14.40
2018-06-12T03:38:33.315Z,15.23
2018-06-12T03:41:02.178Z,13.70
2018-06-12T03:43:31.070Z,14.73
2018-06-12T03:45:59.988Z,13.40
2018-06-12T03:48:28.845Z,14.20
2018-06-12T03:50:57.756Z,12.83
2018-06-12T03:53:26.633Z,15.28
2018-06-12T03:55:55.507Z,12.67
2018-06-12T03:58:24.337Z,13.47
2018-06-12T04:00:53.177Z,14.20
2018-06-12T04:03:22.011Z,12.70
2018-06-12T04:05:50.840Z,11.00
2018-06-12T04:08:19.665Z,13.47
2018-06-12T04:10:48.535Z,10.93
2018-06-12T04:13:17.400Z,11.33
2018-06-12T04:15:46.244Z,12.73
2018-06-12T04:18:15.132Z,10.63
2018-06-12T04:20:44.035Z,10.90
2018-06-12T04:23:12.914Z,13.50
2018-06-12T04:25:41.798Z,11.63
2018-06-12T04:28:10.681Z,10.33
2018-06-12T04:30:39.588Z,11.40
2018-06-12T04:33:08.468Z,12.35
2018-06-12T04:35:37.341Z,13.05
2018-06-12T04:38:06.194Z,11.83
2018-06-12T04:40:35.046Z,11.03
2018-06-12T04:43:03.879Z,10.97
2018-06-12T04:45:32.914Z,10.73
2018-06-12T04:48:01.805Z,14.23
2018-06-12T04:50:30.696Z,11.70
2018-06-12T04:52:59.549Z,11.80
2018-06-12T04:55:28.393Z,10.90
2018-06-12T04:57:57.263Z,11.37
2018-06-12T05:00:26.159Z,12.17
2018-06-12T05:02:55.008Z,9.87
2018-06-12T05:05:23.829Z,10.60
2018-06-12T05:07:52.673Z,10.13
2018-06-12T05:10:21.620Z,11.80
2018-06-12T05:12:50.459Z,9.00
2018-06-12T05:15:19.301Z,9.93
2018-06-12T05:17:48.160Z,12.07
2018-06-12T05:20:16.996Z,8.60
2018-06-12T05:22:45.882Z,7.97
2018-06-12T05:25:14.755Z,8.00
2018-06-12T05:27:43.587Z,10.33
2018-06-12T05:30:12.456Z,12.30
2018-06-12T05:32:41.293Z,11.23
2018-06-12T05:35:10.134Z,7.70
2018-06-12T05:37:39.028Z,8.77
2018-06-12T05:40:07.886Z,8.45
2018-06-12T05:42:36.762Z,12.90
2018-06-12T05:45:05.689Z,9.43
2018-06-12T05:47:34.559Z,10.20
2018-06-12T05:50:03.443Z,12.80
2018-06-12T05:52:32.287Z,10.60
2018-06-12T05:55:01.162Z,9.00
2018-06-12T05:57:30.027Z,10.37
2018-06-12T05:59:58.899Z,9.27
2018-06-12T06:02:27.750Z,14.40
2018-06-12T06:04:56.633Z,10.07
2018-06-12T06:07:25.580Z,7.57
2018-06-12T06:09:54.346Z,9.45
2018-06-12T06:12:23.203Z,7.13
2018-06-12T06:14:52.092Z,10.83
2018-06-12T06:17:21.135Z,8.13
2018-06-12T06:19:50.807Z,7.10
2018-06-12T06:22:19.649Z,12.33
2018-06-12T06:24:48.688Z,13.33
2018-06-12T06:27:17.547Z,12.57
2018-06-12T06:29:46.481Z,7.23
2018-06-12T06:32:15.328Z,11.23
2018-06-12T06:34:44.181Z,9.17
2018-06-12T06:37:13.024Z,7.63
2018-06-12T06:39:41.883Z,8.23
2018-06-12T06:42:10.771Z,10.72
2018-06-12T06:44:39.624Z,8.10
2018-06-12T06:47:08.469Z,8.77
2018-06-12T06:49:37.303Z,7.30
2018-06-12T06:52:06.335Z,7.97
2018-06-12T06:54:35.168Z,9.73
2018-06-12T06:57:04.071Z,12.83
2018-06-12T06:59:33.242Z,16.20
2018-06-12T07:02:56.695Z,9.37
2018-06-12T07:05:25.634Z,10.57
2018-06-12T07:07:54.600Z,7.97
2018-06-12T07:10:23.528Z,14.03
2018-06-12T07:12:52.391Z,11.70
2018-06-12T07:15:21.248Z,17.13
2018-06-12T07:17:50.099Z,15.17
2018-06-12T07:21:08.750Z,14.80
2018-06-12T07:23:37.602Z,12.03
2018-06-12T07:36:33.136Z,10.27
2018-06-12T07:39:01.996Z,9.08
2018-06-12T07:41:30.869Z,7.50
2018-06-12T07:43:59.705Z,9.07
2018-06-12T07:46:28.596Z,9.53
2018-06-12T07:48:57.443Z,14.57
2018-06-12T07:51:29.116Z,10.03
2018-06-12T07:53:57.985Z,10.95
2018-06-12T07:56:26.850Z,9.53
2018-06-12T07:58:55.704Z,6.77
2018-06-12T08:01:24.542Z,10.40
2018-06-12T08:03:53.388Z,6.27
2018-06-12T08:06:22.284Z,7.60
2018-06-12T08:08:51.191Z,13.30
2018-06-12T08:11:20.029Z,8.53
2018-06-12T08:13:57.349Z,9.43
2018-06-12T08:16:26.791Z,9.10
2018-06-12T08:18:55.638Z,6.07
2018-06-12T08:21:24.485Z,7.63
2018-06-12T08:23:53.368Z,9.93
2018-06-12T08:26:22.224Z,8.63
2018-06-12T08:28:51.073Z,6.67
2018-06-12T08:31:19.905Z,6.53
2018-06-12T08:33:48.760Z,9.13
2018-06-12T08:36:17.677Z,7.77
2018-06-12T08:38:46.502Z,6.40
2018-06-12T08:41:15.332Z,8.43
2018-06-12T08:43:44.210Z,8.00
2018-06-12T08:46:13.044Z,5.17
2018-06-12T08:48:41.883Z,7.77
2018-06-12T08:51:10.795Z,5.43
2018-06-12T08:53:39.681Z,5.83
2018-06-12T08:56:08.624Z,5.37
2018-06-12T08:58:37.492Z,7.55
2018-06-12T09:01:06.365Z,6.20
2018-06-12T09:03:35.222Z,7.30
2018-06-12T09:06:04.061Z,5.60
2018-06-12T09:08:32.936Z,5.08
2018-06-12T09:11:02.032Z,7.00
2018-06-12T09:13:30.860Z,6.37
2018-06-12T09:15:59.725Z,5.33
2018-06-12T09:18:28.607Z,6.78
2018-06-12T09:20:57.472Z,11.05
2018-06-12T09:23:26.359Z,7.87
2018-06-12T09:25:55.274Z,9.53
2018-06-12T09:28:24.506Z,8.23
2018-06-12T09:30:53.456Z,6.47
2018-06-12T09:33:22.256Z,6.10
2018-06-12T09:35:51.161Z,5.03
2018-06-12T09:38:20.012Z,5.97
2018-06-12T09:40:48.906Z,6.27
2018-06-12T09:43:17.731Z,6.80
2018-06-12T09:45:46.565Z,10.67
2018-06-12T09:48:15.392Z,5.90
2018-06-12T09:50:44.260Z,5.92
2018-06-12T09:53:13.129Z,6.87
2018-06-12T09:55:41.979Z,9.80
2018-06-12T09:58:10.836Z,7.62
2018-06-12T10:00:57.414Z,6.93
2018-06-12T10:03:26.248Z,9.70
2018-06-12T10:05:55.142Z,8.33
2018-06-12T10:08:24.002Z,7.67
2018-06-12T10:10:53.023Z,7.13
2018-06-12T10:13:21.876Z,7.07
2018-06-12T10:15:50.736Z,8.10
2018-06-12T10:18:19.602Z,9.63
2018-06-12T10:20:48.476Z,8.17
2018-06-12T10:23:17.457Z,11.40
2018-06-12T10:25:46.314Z,8.20
2018-06-12T10:28:15.254Z,8.80
2018-06-12T10:30:44.114Z,9.07
2018-06-12T10:33:12.925Z,6.70
2018-06-12T10:35:41.796Z,10.00
2018-06-12T10:38:10.748Z,11.03
2018-06-12T10:40:39.630Z,8.53
2018-06-12T10:43:08.641Z,8.77
2018-06-12T10:45:37.562Z,9.23
2018-06-12T10:48:06.421Z,9.17
2018-06-12T10:50:35.262Z,9.60
2018-06-12T10:53:04.123Z,11.27
2018-06-12T10:55:32.984Z,9.33
2018-06-12T10:58:01.833Z,7.30
2018-06-12T11:00:30.725Z,8.60
2018-06-12T11:02:59.583Z,6.57
2018-06-12T11:05:28.424Z,8.10
2018-06-12T11:07:57.330Z,10.33
2018-06-12T11:10:26.184Z,6.50
2018-06-12T11:12:55.056Z,6.40
2018-06-12T11:15:23.948Z,8.17
2018-06-12T11:17:52.773Z,7.27
2018-06-12T11:20:21.676Z,7.50
2018-06-12T11:22:50.529Z,6.20
2018-06-12T11:25:19.378Z,5.97
2018-06-12T11:27:48.287Z,6.87
2018-06-12T11:30:17.136Z,6.97
2018-06-12T11:32:46.004Z,9.33
2018-06-12T11:35:14.831Z,6.97
2018-06-12T11:37:43.695Z,8.10
2018-06-12T11:40:12.552Z,8.83
2018-06-12T11:42:41.404Z,7.30
2018-06-12T11:45:10.269Z,8.00
2018-06-12T11:47:39.151Z,6.70
2018-06-12T11:50:07.997Z,8.70
2018-06-12T11:52:36.862Z,6.03
2018-06-12T11:55:06.250Z,7.50
2018-06-12T11:57:35.103Z,10.17
2018-06-12T12:00:04.419Z,5.73
2018-06-12T12:02:33.291Z,8.20
2018-06-12T12:05:02.144Z,6.07
2018-06-12T12:07:30.970Z,7.37
2018-06-12T12:09:59.829Z,6.17
2018-06-12T12:12:28.665Z,8.37
2018-06-12T12:14:57.504Z,8.50
2018-06-12T12:17:26.356Z,7.75
2018-06-12T12:19:55.230Z,5.73
2018-06-12T12:22:24.079Z,6.30
2018-06-12T12:24:52.940Z,7.85
2018-06-12T12:27:21.810Z,6.47
2018-06-12T12:29:50.664Z,8.07
2018-06-12T12:32:19.510Z,6.27
2018-06-12T12:34:48.350Z,6.60
2018-06-12T12:37:17.211Z,7.27
2018-06-12T12:39:46.075Z,5.40
2018-06-12T12:42:14.938Z,9.57
2018-06-12T12:44:43.839Z,6.83
2018-06-12T12:47:12.731Z,6.70
2018-06-12T12:49:41.586Z,6.83
2018-06-12T12:52:10.438Z,7.63
2018-06-12T12:54:39.338Z,6.63
2018-06-12T12:57:08.194Z,6.40
2018-06-12T12:59:37.070Z,6.43
2018-06-12T13:02:05.966Z,6.10
2018-06-12T13:04:34.849Z,6.43
2018-06-12T13:07:03.692Z,9.90
2018-06-12T13:09:32.535Z,7.03
2018-06-12T13:12:01.359Z,6.43
2018-06-12T13:14:30.257Z,6.47
2018-06-12T13:16:59.128Z,6.50
2018-06-12T13:19:27.941Z,7.33
2018-06-12T13:21:56.808Z,8.63
2018-06-12T13:24:25.689Z,7.40
2018-06-12T13:26:54.574Z,7.20
2018-06-12T13:29:23.407Z,8.40
2018-06-12T13:31:52.262Z,6.63
2018-06-12T13:34:21.151Z,6.57
2018-06-12T13:36:50.062Z,6.70
2018-06-12T13:39:18.947Z,6.17
2018-06-12T13:41:47.817Z,7.30
2018-06-12T13:44:16.728Z,8.17
2018-06-12T13:46:45.784Z,8.30
2018-06-12T13:49:14.619Z,6.40
2018-06-12T13:51:43.501Z,11.30
2018-06-12T13:54:12.375Z,9.30
2018-06-12T13:56:41.263Z,9.13
2018-06-12T13:59:10.131Z,8.20
2018-06-12T14:01:38.962Z,8.20
2018-06-12T14:04:07.835Z,9.23
2018-06-12T14:06:36.695Z,9.70
2018-06-12T14:09:07.415Z,7.70
2018-06-12T14:11:36.423Z,8.00
2018-06-12T14:14:05.280Z,6.87
2018-06-12T14:16:34.127Z,7.67
2018-06-12T14:19:02.995Z,8.53
2018-06-12T14:21:31.880Z,10.03
2018-06-12T14:24:00.714Z,7.43
2018-06-12T14:26:29.588Z,9.10
2018-06-12T14:28:58.447Z,12.73
2018-06-12T14:31:27.286Z,10.40
2018-06-12T14:33:56.155Z,7.10
2018-06-12T14:36:24.992Z,7.07
2018-06-12T14:38:53.969Z,10.47
2018-06-12T14:41:22.849Z,7.63
2018-06-12T14:43:51.694Z,8.83
2018-06-12T14:46:20.558Z,9.47
2018-06-12T14:48:49.394Z,9.53
2018-06-12T14:51:18.234Z,8.57
2018-06-12T14:53:47.070Z,9.05
2018-06-12T14:56:15.903Z,6.50
2018-06-12T14:58:44.768Z,9.07
2018-06-12T15:01:13.715Z,6.53
2018-06-12T15:03:42.549Z,6.73
2018-06-12T15:06:11.422Z,8.43
2018-06-12T15:08:40.261Z,8.87
2018-06-12T15:11:09.216Z,8.43
2018-06-12T15:13:38.116Z,10.73
2018-06-12T15:16:06.995Z,9.00
2018-06-12T15:18:35.887Z,10.17
2018-06-12T15:21:04.798Z,9.15
2018-06-12T15:23:33.750Z,8.60
2018-06-12T15:26:02.569Z,9.07
2018-06-12T15:28:32.613Z,8.63
2018-06-12T15:31:01.490Z,8.83
2018-06-12T15:33:30.349Z,7.40
2018-06-12T15:35:59.198Z,8.30
2018-06-12T15:38:28.049Z,8.97
2018-06-12T15:40:56.888Z,8.20
2018-06-12T15:43:25.697Z,7.53
2018-06-12T15:45:54.514Z,8.83
2018-06-12T15:48:23.382Z,10.67
2018-06-12T15:50:52.234Z,9.43
2018-06-12T15:53:21.084Z,7.80
2018-06-12T15:55:49.935Z,7.97
2018-06-12T15:58:18.802Z,7.40
2018-06-12T16:00:47.678Z,9.10
2018-06-12T16:03:16.489Z,7.70
2018-06-12T16:05:45.393Z,8.73
2018-06-12T16:08:14.229Z,7.77
2018-06-12T16:10:43.118Z,7.70
2018-06-12T16:13:11.978Z,7.27
2018-06-12T16:15:40.791Z,5.90
2018-06-12T16:18:09.652Z,4.97
2018-06-12T16:20:38.485Z,5.77
2018-06-12T16:23:07.343Z,5.37
2018-06-12T16:25:36.199Z,5.42
2018-06-12T16:28:05.115Z,7.07
2018-06-12T16:30:34.028Z,4.80
2018-06-12T16:33:02.857Z,5.73
2018-06-12T16:35:31.684Z,5.37
2018-06-12T16:38:00.570Z,4.97
2018-06-12T16:40:29.404Z,4.37
2018-06-12T16:42:58.240Z,5.10
2018-06-12T16:45:27.111Z,4.13
2018-06-12T16:47:55.950Z,4.30
2018-06-12T16:50:24.809Z,4.50
2018-06-12T16:52:53.665Z,5.45
2018-06-12T16:55:22.516Z,5.43
2018-06-12T16:57:51.397Z,4.37
2018-06-12T17:00:20.338Z,5.07
2018-06-12T17:02:49.185Z,7.37
2018-06-12T17:05:18.049Z,5.27
2018-06-12T17:07:46.882Z,5.03
2018-06-12T17:10:15.763Z,5.43
2018-06-12T17:12:44.985Z,4.07
2018-06-12T17:15:13.879Z,3.90
2018-06-12T17:17:42.803Z,3.43
2018-06-12T17:20:11.747Z,2.90
2018-06-12T17:22:40.612Z,3.33
2018-06-12T17:25:09.531Z,4.57
2018-06-12T17:27:38.411Z,3.70
2018-06-12T17:30:07.659Z,2.97
2018-06-12T17:32:36.732Z,3.77
2018-06-12T17:35:05.681Z,4.73
2018-06-12T17:37:34.531Z,4.90
2018-06-12T17:40:03.482Z,2.80
2018-06-12T17:42:32.396Z,3.13
2018-06-12T17:45:01.237Z,4.47
2018-06-12T17:47:30.103Z,3.57
2018-06-12T17:49:59.039Z,3.47
2018-06-12T17:52:27.919Z,3.43
2018-06-12T17:54:56.831Z,3.73
2018-06-12T17:57:25.698Z,3.50
2018-06-12T17:59:54.624Z,6.87
2018-06-12T18:02:23.533Z,3.00
2018-06-12T18:04:52.628Z,3.52
2018-06-12T18:07:21.791Z,5.47
2018-06-12T18:09:50.758Z,2.87
2018-06-12T18:12:19.606Z,3.27
2018-06-12T18:14:48.540Z,3.50
2018-06-12T18:17:17.425Z,3.20
2018-06-12T18:20:01.509Z,3.73
2018-06-12T18:22:31.467Z,1.70
2018-06-12T18:25:00.387Z,3.97
2018-06-12T18:27:29.288Z,51.27
2018-06-12T18:29:58.165Z,15.23
2018-06-12T18:32:27.032Z,6.33
2018-06-12T18:34:55.895Z,4.63
2018-06-12T18:37:24.842Z,1.73
2018-06-12T18:39:53.601Z,4.90
2018-06-12T18:42:22.432Z,2.97
2018-06-12T18:44:51.503Z,2.53
2018-06-12T18:47:20.452Z,8.10
2018-06-12T18:49:49.354Z,2.23
2018-06-12T18:52:18.243Z,3.20
2018-06-12T18:54:47.128Z,6.20
2018-06-12T18:57:15.982Z,1.73
2018-06-12T18:59:44.852Z,2.53
2018-06-12T19:02:13.724Z,10.40
2018-06-12T19:04:42.612Z,3.23
2018-06-12T19:07:11.612Z,2.83
2018-06-12T19:09:40.557Z,2.53
2018-06-12T19:12:09.505Z,2.73
2018-06-12T19:14:38.387Z,2.33
2018-06-12T19:17:07.420Z,2.10
2018-06-12T19:19:36.291Z,4.00
2018-06-12T19:22:05.164Z,3.03
2018-06-12T19:24:34.074Z,2.17
2018-06-12T19:27:02.979Z,4.60
2018-06-12T19:29:33.702Z,2.90
2018-06-12T19:32:02.569Z,3.37
2018-06-12T19:34:31.459Z,1.87
2018-06-12T19:37:00.374Z,2.30
2018-06-12T19:39:29.238Z,3.90
2018-06-12T19:41:58.277Z,4.83
2018-06-12T19:44:27.646Z,2.20
2018-06-12T19:46:56.499Z,4.27
2018-06-12T19:49:25.406Z,1.57
2018-06-12T19:51:54.244Z,1.50
2018-06-12T19:54:23.073Z,1.83
2018-06-12T19:56:51.934Z,2.03
2018-06-12T19:59:20.777Z,3.87
2018-06-12T20:01:49.862Z,4.17
2018-06-12T20:04:18.738Z,3.13
2018-06-12T20:06:47.857Z,2.53
2018-06-12T20:09:16.744Z,1.80
2018-06-12T20:11:45.626Z,2.40
2018-06-12T20:14:14.574Z,1.50
2018-06-12T20:16:43.516Z,3.90
2018-06-12T20:19:12.405Z,1.43
2018-06-12T20:21:41.284Z,1.20
2018-06-12T20:24:10.147Z,3.45
2018-06-12T20:26:38.976Z,1.80
2018-06-12T20:29:07.842Z,2.27
2018-06-12T20:31:36.676Z,1.77
2018-06-12T20:34:06.981Z,1.30
2018-06-12T20:36:35.847Z,1.47
2018-06-12T20:39:07.412Z,2.77
2018-06-12T20:41:36.523Z,3.37
2018-06-12T20:44:05.533Z,2.50
2018-06-12T20:46:34.462Z,1.23
2018-06-12T20:49:03.319Z,4.10
2018-06-12T20:51:32.276Z,4.07
2018-06-12T20:54:01.166Z,3.40
2018-06-12T20:56:30.072Z,2.90
2018-06-12T20:58:59.001Z,4.40
2018-06-12T21:01:27.861Z,2.80
2018-06-12T21:03:56.735Z,3.27
2018-06-12T21:06:25.573Z,2.43
2018-06-12T21:08:54.395Z,5.63
2018-06-12T21:11:23.247Z,2.70
2018-06-12T21:13:52.094Z,4.33
2018-06-12T21:16:24.309Z,2.07
2018-06-12T21:18:53.186Z,4.50
2018-06-12T21:21:22.044Z,3.60
2018-06-12T21:23:50.913Z,3.17
2018-06-12T21:26:19.917Z,3.57
2018-06-12T21:28:48.821Z,5.13
2018-06-12T21:31:17.789Z,4.77
2018-06-12T21:33:46.601Z,2.47
2018-06-12T21:36:15.518Z,2.40
2018-06-12T21:38:50.701Z,5.42
2018-06-12T21:41:19.594Z,2.53
2018-06-12T21:43:48.481Z,5.90
2018-06-12T21:46:17.345Z,2.20
2018-06-12T21:48:46.187Z,8.47
2018-06-12T21:51:15.100Z,2.40
2018-06-12T21:53:43.974Z,2.60
2018-06-12T21:56:12.971Z,5.17
2018-06-12T21:58:41.829Z,4.20
2018-06-12T22:01:10.816Z,2.43
2018-06-12T22:03:39.700Z,5.73
2018-06-12T22:06:08.655Z,2.30
2018-06-12T22:08:37.482Z,4.60
2018-06-12T22:11:06.401Z,4.83
2018-06-12T22:13:35.269Z,3.53
2018-06-12T22:16:04.186Z,3.07
2018-06-12T22:18:32.996Z,5.43
2018-06-12T22:21:01.872Z,9.23
2018-06-12T22:23:30.741Z,3.33
2018-06-12T22:25:59.609Z,6.07
2018-06-12T22:28:28.446Z,3.77
2018-06-12T22:30:57.317Z,3.60
2018-06-12T22:33:26.195Z,4.65
2018-06-12T22:35:55.115Z,3.87
2018-06-12T22:38:23.965Z,2.73
2018-06-12T22:40:52.833Z,11.55
2018-06-12T22:43:21.665Z,4.03
2018-06-12T22:45:50.536Z,4.27
2018-06-12T22:48:19.346Z,3.97
2018-06-12T22:50:48.306Z,3.67
2018-06-12T22:53:17.143Z,4.37
2018-06-12T22:55:46.003Z,5.13
2018-06-12T22:58:14.875Z,3.57
2018-06-12T23:00:43.764Z,3.53
2018-06-12T23:03:12.627Z,2.27
2018-06-12T23:05:41.476Z,6.80
2018-06-12T23:08:10.334Z,5.00
2018-06-12T23:10:39.206Z,2.43
2018-06-12T23:13:08.047Z,2.97
2018-06-12T23:15:36.905Z,3.97
2018-06-12T23:18:06.111Z,2.80
2018-06-12T23:21:28.156Z,3.13
2018-06-12T23:23:57.030Z,2.10
2018-06-12T23:26:25.871Z,5.53
2018-06-12T23:28:54.758Z,2.57
2018-06-12T23:31:23.575Z,3.92
2018-06-12T23:33:52.436Z,3.93
2018-06-12T23:36:21.316Z,3.80
2018-06-12T23:38:50.220Z,4.00
2018-06-12T23:41:19.237Z,3.13
2018-06-12T23:43:48.188Z,6.47
2018-06-12T23:46:17.039Z,2.50
2018-06-12T23:48:45.908Z,4.10
2018-06-12T23:51:14.768Z,3.58
2018-06-12T23:53:43.627Z,2.23
2018-06-12T23:56:12.482Z,2.80
2018-06-12T23:58:41.339Z,5.50
